createdAt,value
2022-10-23T00:00:58.283Z,993.66
2022-10-23T00:01:58.281Z,993.67
2022-10-23T00:02:58.358Z,993.68
2022-10-23T00:03:58.249Z,993.65
2022-10-23T00:04:58.249Z,993.64
2022-10-23T00:05:58.249Z,993.61
2022-10-23T00:06:58.245Z,993.66
2022-10-23T00:07:58.224Z,993.66
2022-10-23T00:08:58.224Z,993.66
2022-10-23T00:09:58.213Z,993.71
2022-10-23T00:10:58.223Z,993.69
2022-10-23T00:11:58.222Z,993.70
2022-10-23T00:12:58.201Z,993.56
2022-10-23T00:13:58.187Z,993.51
2022-10-23T00:14:58.185Z,993.59
2022-10-23T00:15:58.211Z,993.55
2022-10-23T00:16:58.185Z,993.54
2022-10-23T00:17:58.161Z,993.55
2022-10-23T00:18:58.189Z,993.49
2022-10-23T00:19:58.154Z,993.53
2022-10-23T00:20:58.141Z,993.45
2022-10-23T00:21:58.157Z,993.54
2022-10-23T00:22:58.136Z,993.51
2022-10-23T00:23:58.187Z,993.48
2022-10-23T00:24:58.132Z,993.49
2022-10-23T00:25:58.107Z,993.54
2022-10-23T00:26:58.113Z,993.48
2022-10-23T00:27:58.106Z,993.48
2022-10-23T00:28:58.094Z,993.54
2022-10-23T00:29:58.089Z,993.52
2022-10-23T00:30:58.084Z,993.54
2022-10-23T00:31:58.066Z,993.55
2022-10-23T00:32:58.081Z,993.48
2022-10-23T00:33:58.057Z,993.58
2022-10-23T00:34:58.049Z,993.53
2022-10-23T00:35:58.048Z,993.48
2022-10-23T00:36:58.037Z,993.55
2022-10-23T00:37:58.045Z,993.58
2022-10-23T00:38:58.033Z,993.53
2022-10-23T00:39:58.021Z,993.54
2022-10-23T00:40:58.018Z,993.53
2022-10-23T00:41:58.005Z,993.57
2022-10-23T00:42:58.009Z,993.57
2022-10-23T00:43:57.985Z,993.54
2022-10-23T00:44:58.002Z,993.54
2022-10-23T00:45:57.981Z,993.51
2022-10-23T00:46:58.052Z,993.52
2022-10-23T00:47:57.973Z,993.55
2022-10-23T00:48:57.993Z,993.59
2022-10-23T00:49:57.959Z,993.54
2022-10-23T00:50:57.949Z,993.53
2022-10-23T00:51:57.942Z,993.56
2022-10-23T00:52:57.930Z,993.54
2022-10-23T00:54:12.649Z,993.52
2022-10-23T00:54:58.944Z,993.52
2022-10-23T00:55:57.918Z,993.53
2022-10-23T00:56:57.904Z,993.44
2022-10-23T00:57:57.904Z,993.49
2022-10-23T00:58:57.909Z,993.47
2022-10-23T00:59:57.889Z,993.41
2022-10-23T01:00:57.919Z,993.46
2022-10-23T01:01:57.982Z,993.46
2022-10-23T01:02:57.866Z,993.52
2022-10-23T01:03:57.881Z,993.44
2022-10-23T01:04:57.853Z,993.46
2022-10-23T01:05:57.857Z,993.45
2022-10-23T01:06:57.837Z,993.38
2022-10-23T01:07:57.832Z,993.40
2022-10-23T01:08:57.838Z,993.37
2022-10-23T01:09:57.825Z,993.37
2022-10-23T01:10:57.812Z,993.37
2022-10-23T01:11:57.815Z,993.33
2022-10-23T01:12:57.804Z,993.38
2022-10-23T01:13:57.851Z,993.38
2022-10-23T01:14:57.801Z,993.34
2022-10-23T01:15:57.780Z,993.34
2022-10-23T01:16:57.776Z,993.38
2022-10-23T01:17:57.782Z,993.36
2022-10-23T01:18:57.756Z,993.43
2022-10-23T01:19:57.765Z,993.44
2022-10-23T01:20:57.741Z,993.41
2022-10-23T01:21:57.737Z,993.41
2022-10-23T01:22:58.733Z,993.45
2022-10-23T01:23:57.720Z,993.42
2022-10-23T01:24:57.730Z,993.38
2022-10-23T01:25:57.704Z,993.37
2022-10-23T01:26:57.709Z,993.35
2022-10-23T01:27:57.706Z,993.37
2022-10-23T01:28:57.725Z,993.35
2022-10-23T01:29:57.693Z,993.34
2022-10-23T01:30:57.681Z,993.32
2022-10-23T01:31:57.660Z,993.34
2022-10-23T01:32:57.669Z,993.32
2022-10-23T01:33:57.662Z,993.33
2022-10-23T01:34:57.706Z,993.28
2022-10-23T01:35:57.643Z,993.29
2022-10-23T01:36:57.634Z,993.26
2022-10-23T01:37:57.639Z,993.25
2022-10-23T01:38:57.710Z,993.22
2022-10-23T01:39:57.617Z,993.26
2022-10-23T01:40:57.611Z,993.24
2022-10-23T01:41:57.601Z,993.22
2022-10-23T01:42:57.596Z,993.23
2022-10-23T01:43:57.582Z,993.25
2022-10-23T01:44:57.598Z,993.22
2022-10-23T01:45:57.577Z,993.27
2022-10-23T01:46:57.565Z,993.32
2022-10-23T01:47:57.561Z,993.37
2022-10-23T01:48:57.556Z,993.32
2022-10-23T01:49:57.567Z,993.23
2022-10-23T01:50:57.550Z,993.31
2022-10-23T01:51:57.533Z,993.24
2022-10-23T01:52:57.525Z,993.27
2022-10-23T01:53:57.529Z,993.20
2022-10-23T01:54:57.517Z,993.23
2022-10-23T01:55:57.617Z,993.21
2022-10-23T01:56:57.501Z,993.26
2022-10-23T01:57:57.496Z,993.24
2022-10-23T01:58:57.482Z,993.20
2022-10-23T01:59:57.487Z,993.21
2022-10-23T02:00:57.582Z,993.18
2022-10-23T02:01:57.569Z,993.15
2022-10-23T02:02:57.466Z,993.17
2022-10-23T02:04:57.453Z,993.20
2022-10-23T02:05:57.450Z,993.17
2022-10-23T02:06:57.448Z,993.21
2022-10-23T02:07:57.425Z,993.22
2022-10-23T02:08:57.421Z,993.30
2022-10-23T02:09:57.612Z,993.31
2022-10-23T02:10:57.405Z,993.25
2022-10-23T02:11:57.501Z,993.25
2022-10-23T02:12:57.420Z,993.27
2022-10-23T02:13:57.380Z,993.24
2022-10-23T02:14:58.378Z,993.22
2022-10-23T02:15:57.376Z,993.22
2022-10-23T02:16:57.356Z,993.22
2022-10-23T02:17:57.349Z,993.28
2022-10-23T02:18:57.349Z,993.24
2022-10-23T02:19:57.328Z,993.25
2022-10-23T02:20:58.325Z,993.22
2022-10-23T02:21:57.349Z,993.25
2022-10-23T02:22:57.308Z,993.24
2022-10-23T02:23:57.312Z,993.25
2022-10-23T02:24:57.313Z,993.23
2022-10-23T02:25:57.296Z,993.24
2022-10-23T02:26:57.317Z,993.15
2022-10-23T02:27:57.293Z,993.10
2022-10-23T02:28:57.336Z,993.16
2022-10-23T02:29:57.272Z,993.11
2022-10-23T02:30:57.260Z,993.11
2022-10-23T02:31:57.268Z,993.07
2022-10-23T02:32:57.292Z,993.02
2022-10-23T02:33:57.245Z,993.00
2022-10-23T02:34:57.240Z,992.96
2022-10-23T02:35:57.225Z,992.91
2022-10-23T02:36:58.229Z,992.97
2022-10-23T02:37:57.253Z,992.93
2022-10-23T02:38:57.212Z,992.99
2022-10-23T02:39:57.204Z,992.92
2022-10-23T02:40:57.194Z,992.90
2022-10-23T02:41:57.177Z,992.93
2022-10-23T02:42:57.185Z,992.87
2022-10-23T02:43:57.323Z,992.91
2022-10-23T02:44:57.161Z,992.88
2022-10-23T02:45:57.180Z,992.85
2022-10-23T02:46:57.151Z,992.86
2022-10-23T02:47:57.142Z,992.90
2022-10-23T02:48:57.148Z,992.86
2022-10-23T02:49:57.138Z,992.86
2022-10-23T02:50:57.150Z,992.87
2022-10-23T02:51:57.136Z,992.89
2022-10-23T02:52:57.117Z,992.93
2022-10-23T02:54:57.105Z,992.96
2022-10-23T02:55:57.093Z,992.94
2022-10-23T02:56:57.072Z,992.90
2022-10-23T02:57:57.076Z,992.91
2022-10-23T02:58:57.100Z,992.86
2022-10-23T02:59:57.056Z,992.80
2022-10-23T03:00:57.113Z,992.81
2022-10-23T03:01:57.218Z,992.83
2022-10-23T03:02:57.035Z,992.82
2022-10-23T03:03:57.032Z,992.81
2022-10-23T03:04:57.037Z,992.79
2022-10-23T03:05:57.054Z,992.80
2022-10-23T03:06:57.001Z,992.75
2022-10-23T03:07:57.000Z,992.76
2022-10-23T03:08:57.004Z,992.71
2022-10-23T03:09:57.001Z,992.75
2022-10-23T03:10:56.990Z,992.67
2022-10-23T03:11:57.008Z,992.68
2022-10-23T03:12:56.965Z,992.67
2022-10-23T03:13:56.970Z,992.63
2022-10-23T03:14:56.980Z,992.71
2022-10-23T03:15:56.952Z,992.68
2022-10-23T03:16:56.941Z,992.67
2022-10-23T03:17:56.947Z,992.75
2022-10-23T03:18:56.937Z,992.72
2022-10-23T03:19:56.932Z,992.71
2022-10-23T03:20:56.924Z,992.68
2022-10-23T03:21:56.925Z,992.72
2022-10-23T03:22:56.900Z,992.76
2022-10-23T03:23:56.892Z,992.74
2022-10-23T03:24:56.895Z,992.75
2022-10-23T03:25:56.896Z,992.77
2022-10-23T03:26:56.916Z,992.79
2022-10-23T03:27:56.860Z,992.75
2022-10-23T03:28:56.848Z,992.77
2022-10-23T03:29:56.996Z,992.74
2022-10-23T03:30:56.877Z,992.71
2022-10-23T03:31:56.870Z,992.75
2022-10-23T03:32:56.810Z,992.72
2022-10-23T03:33:57.818Z,992.74
2022-10-23T03:34:57.817Z,992.70
2022-10-23T03:35:56.799Z,992.69
2022-10-23T03:36:56.810Z,992.72
2022-10-23T03:37:56.855Z,992.69
2022-10-23T03:38:56.786Z,992.68
2022-10-23T03:39:56.786Z,992.63
2022-10-23T03:40:56.779Z,992.70
2022-10-23T03:41:56.766Z,992.65
2022-10-23T03:42:56.782Z,992.64
2022-10-23T03:43:56.777Z,992.62
2022-10-23T03:44:56.742Z,992.66
2022-10-23T03:45:56.747Z,992.62
2022-10-23T03:46:56.726Z,992.68
2022-10-23T03:47:56.726Z,992.66
2022-10-23T03:48:56.771Z,992.56
2022-10-23T03:49:56.705Z,992.62
2022-10-23T03:50:56.698Z,992.64
2022-10-23T03:51:56.696Z,992.67
2022-10-23T03:52:56.682Z,992.63
2022-10-23T03:53:56.695Z,992.66
2022-10-23T03:54:56.683Z,992.64
2022-10-23T03:55:56.674Z,992.63
2022-10-23T03:56:57.666Z,992.67
2022-10-23T03:57:56.654Z,992.61
2022-10-23T03:58:56.663Z,992.64
2022-10-23T03:59:56.654Z,992.56
2022-10-23T04:00:56.695Z,992.54
2022-10-23T04:01:56.806Z,992.53
2022-10-23T04:02:56.610Z,992.54
2022-10-23T04:03:56.645Z,992.48
2022-10-23T04:04:56.606Z,992.49
2022-10-23T04:05:56.606Z,992.51
2022-10-23T04:06:56.589Z,992.47
2022-10-23T04:07:56.594Z,992.45
2022-10-23T04:08:56.591Z,992.40
2022-10-23T04:09:56.578Z,992.45
2022-10-23T04:10:56.583Z,992.45
2022-10-23T04:11:56.572Z,992.43
2022-10-23T04:12:56.554Z,992.44
2022-10-23T04:13:56.562Z,992.44
2022-10-23T04:14:56.534Z,992.46
2022-10-23T04:15:56.536Z,992.56
2022-10-23T04:16:56.529Z,992.46
2022-10-23T04:17:56.506Z,992.50
2022-10-23T04:18:57.510Z,992.44
2022-10-23T04:19:56.503Z,992.50
2022-10-23T04:20:56.515Z,992.41
2022-10-23T04:21:56.495Z,992.50
2022-10-23T04:22:56.484Z,992.45
2022-10-23T04:23:56.480Z,992.44
2022-10-23T04:24:56.469Z,992.39
2022-10-23T04:25:56.486Z,992.41
2022-10-23T04:26:56.459Z,992.39
2022-10-23T04:27:56.446Z,992.45
2022-10-23T04:28:56.442Z,992.40
2022-10-23T04:29:59.009Z,992.43
2022-10-23T04:30:56.442Z,992.43
2022-10-23T04:31:56.414Z,992.45
2022-10-23T04:32:56.429Z,992.46
2022-10-23T04:33:56.464Z,992.50
2022-10-23T04:34:56.452Z,992.41
2022-10-23T04:35:56.394Z,992.38
2022-10-23T04:36:56.398Z,992.43
2022-10-23T04:37:56.390Z,992.38
2022-10-23T04:38:56.375Z,992.38
2022-10-23T04:39:56.374Z,992.37
2022-10-23T04:40:56.369Z,992.33
2022-10-23T04:41:56.378Z,992.37
2022-10-23T04:42:56.342Z,992.36
2022-10-23T04:43:56.338Z,992.37
2022-10-23T04:44:56.342Z,992.35
2022-10-23T04:45:56.330Z,992.35
2022-10-23T04:46:56.343Z,992.32
2022-10-23T04:47:56.330Z,992.34
2022-10-23T04:48:56.313Z,992.36
2022-10-23T04:49:56.301Z,992.32
2022-10-23T04:50:56.295Z,992.34
2022-10-23T04:51:56.281Z,992.33
2022-10-23T04:52:56.294Z,992.29
2022-10-23T04:53:56.267Z,992.33
2022-10-23T04:54:56.258Z,992.31
2022-10-23T04:55:56.262Z,992.43
2022-10-23T04:56:56.252Z,992.40
2022-10-23T04:57:56.258Z,992.42
2022-10-23T04:58:56.266Z,992.43
2022-10-23T04:59:56.221Z,992.47
2022-10-23T05:00:56.458Z,992.43
2022-10-23T05:01:56.264Z,992.40
2022-10-23T05:02:56.225Z,992.35
2022-10-23T05:03:56.221Z,992.37
2022-10-23T05:04:56.190Z,992.34
2022-10-23T05:05:56.189Z,992.39
2022-10-23T05:06:56.182Z,992.42
2022-10-23T05:07:56.170Z,992.41
2022-10-23T05:08:56.173Z,992.40
2022-10-23T05:09:56.157Z,992.40
2022-10-23T05:10:56.152Z,992.35
2022-10-23T05:11:56.141Z,992.43
2022-10-23T05:12:56.142Z,992.32
2022-10-23T05:13:56.150Z,992.32
2022-10-23T05:14:56.117Z,992.29
2022-10-23T05:15:56.106Z,992.19
2022-10-23T05:16:56.110Z,992.13
2022-10-23T05:17:56.113Z,992.11
2022-10-23T05:18:56.107Z,992.07
2022-10-23T05:19:56.089Z,992.08
2022-10-23T05:20:56.076Z,992.12
2022-10-23T05:21:56.129Z,992.16
2022-10-23T05:22:56.066Z,992.15
2022-10-23T05:23:56.120Z,992.14
2022-10-23T05:24:56.045Z,992.18
2022-10-23T05:25:56.045Z,992.24
2022-10-23T05:26:56.033Z,992.25
2022-10-23T05:27:56.034Z,992.34
2022-10-23T05:28:56.029Z,992.31
2022-10-23T05:29:56.005Z,992.33
2022-10-23T05:30:55.993Z,992.37
2022-10-23T05:31:57.005Z,992.33
2022-10-23T05:32:55.986Z,992.37
2022-10-23T05:33:55.989Z,992.39
2022-10-23T05:34:55.983Z,992.41
2022-10-23T05:35:55.992Z,992.49
2022-10-23T05:36:55.967Z,992.46
2022-10-23T05:37:55.957Z,992.42
2022-10-23T05:38:55.946Z,992.37
2022-10-23T05:39:55.950Z,992.39
2022-10-23T05:40:55.935Z,992.38
2022-10-23T05:41:55.939Z,992.32
2022-10-23T05:42:55.930Z,992.30
2022-10-23T05:43:55.909Z,992.21
2022-10-23T05:44:55.917Z,992.23
2022-10-23T05:45:55.905Z,992.12
2022-10-23T05:46:55.918Z,992.14
2022-10-23T05:48:05.674Z,992.08
2022-10-23T05:48:56.903Z,992.10
2022-10-23T05:49:55.873Z,992.02
2022-10-23T05:50:55.853Z,992.02
2022-10-23T05:51:55.870Z,992.01
2022-10-23T05:52:55.841Z,992.04
2022-10-23T05:53:55.838Z,992.11
2022-10-23T05:54:55.837Z,992.11
2022-10-23T05:55:55.823Z,992.19
2022-10-23T05:56:55.845Z,992.20
2022-10-23T05:57:55.817Z,992.17
2022-10-23T05:58:55.796Z,992.14
2022-10-23T05:59:55.797Z,992.12
2022-10-23T06:00:55.984Z,992.13
2022-10-23T06:01:56.079Z,992.06
2022-10-23T06:02:55.770Z,992.06
2022-10-23T06:03:55.770Z,992.04
2022-10-23T06:04:55.766Z,992.00
2022-10-23T06:05:55.763Z,992.08
2022-10-23T06:06:55.805Z,992.09
2022-10-23T06:07:56.774Z,992.09
2022-10-23T06:08:55.738Z,992.16
2022-10-23T06:09:55.733Z,992.16
2022-10-23T06:10:55.720Z,992.21
2022-10-23T06:11:55.705Z,992.16
2022-10-23T06:12:55.725Z,992.13
2022-10-23T06:14:55.685Z,992.16
2022-10-23T06:15:55.685Z,992.19
2022-10-23T06:16:55.686Z,992.17
2022-10-23T06:17:55.677Z,992.13
2022-10-23T06:18:55.652Z,992.12
2022-10-23T06:19:55.649Z,992.10
2022-10-23T06:20:55.637Z,992.07
2022-10-23T06:21:55.637Z,992.08
2022-10-23T06:22:55.922Z,992.06
2022-10-23T06:23:55.621Z,992.02
2022-10-23T06:24:55.644Z,991.97
2022-10-23T06:25:55.606Z,991.94
2022-10-23T06:26:55.601Z,992.01
2022-10-23T06:27:55.609Z,992.05
2022-10-23T06:28:55.580Z,992.01
2022-10-23T06:29:55.580Z,992.00
2022-10-23T06:30:55.577Z,992.04
2022-10-23T06:31:55.575Z,992.06
2022-10-23T06:32:55.568Z,992.08
2022-10-23T06:33:55.553Z,992.04
2022-10-23T06:34:55.605Z,992.14
2022-10-23T06:35:55.549Z,992.10
2022-10-23T06:36:55.533Z,992.17
2022-10-23T06:37:55.537Z,992.13
2022-10-23T06:38:55.583Z,992.08
2022-10-23T06:39:55.533Z,992.09
2022-10-23T06:40:55.514Z,992.03
2022-10-23T06:41:55.504Z,991.97
2022-10-23T06:42:55.520Z,991.88
2022-10-23T06:43:55.494Z,991.87
2022-10-23T06:44:55.485Z,991.95
2022-10-23T06:45:55.477Z,991.87
2022-10-23T06:46:55.477Z,991.91
2022-10-23T06:47:55.474Z,991.93
2022-10-23T06:48:55.462Z,992.00
2022-10-23T06:49:55.453Z,992.03
2022-10-23T06:50:55.429Z,992.04
2022-10-23T06:51:55.497Z,992.01
2022-10-23T06:52:55.450Z,992.05
2022-10-23T06:53:55.434Z,992.15
2022-10-23T06:54:55.413Z,992.08
2022-10-23T06:55:55.664Z,992.08
2022-10-23T06:56:55.405Z,992.09
2022-10-23T06:57:55.393Z,992.11
2022-10-23T06:58:55.413Z,992.10
2022-10-23T06:59:55.374Z,992.09
2022-10-23T07:00:55.447Z,992.06
2022-10-23T07:02:55.353Z,992.10
2022-10-23T07:03:55.360Z,992.08
2022-10-23T07:04:55.337Z,992.02
2022-10-23T07:05:55.341Z,991.99
2022-10-23T07:06:55.322Z,992.08
2022-10-23T07:07:55.320Z,992.04
2022-10-23T07:08:55.333Z,992.06
2022-10-23T07:09:55.302Z,992.06
2022-10-23T07:10:55.342Z,992.06
2022-10-23T07:11:55.308Z,992.07
2022-10-23T07:12:55.291Z,992.00
2022-10-23T07:13:55.276Z,992.03
2022-10-23T07:14:55.285Z,992.07
2022-10-23T07:15:55.292Z,992.09
2022-10-23T07:16:55.256Z,992.09
2022-10-23T07:17:55.252Z,992.13
2022-10-23T07:18:55.255Z,992.05
2022-10-23T07:19:55.269Z,992.02
2022-10-23T07:20:55.242Z,992.01
2022-10-23T07:21:55.225Z,991.99
2022-10-23T07:22:55.223Z,991.97
2022-10-23T07:23:55.204Z,992.03
2022-10-23T07:24:55.236Z,991.99
2022-10-23T07:25:55.198Z,991.92
2022-10-23T07:26:55.199Z,991.88
2022-10-23T07:27:55.190Z,991.87
2022-10-23T07:28:55.184Z,991.88
2022-10-23T07:29:55.181Z,991.88
2022-10-23T07:30:55.170Z,991.79
2022-10-23T07:31:55.157Z,991.86
2022-10-23T07:32:55.152Z,991.90
2022-10-23T07:33:55.148Z,991.89
2022-10-23T07:34:55.145Z,991.81
2022-10-23T07:35:55.140Z,991.82
2022-10-23T07:36:55.140Z,991.82
2022-10-23T07:37:55.126Z,991.75
2022-10-23T07:38:55.128Z,991.72
2022-10-23T07:39:55.114Z,991.72
2022-10-23T07:40:55.100Z,991.77
2022-10-23T07:41:55.097Z,991.85
2022-10-23T07:42:55.092Z,991.82
2022-10-23T07:43:55.085Z,991.79
2022-10-23T07:44:55.068Z,991.73
2022-10-23T07:45:55.073Z,991.77
2022-10-23T07:46:55.070Z,991.71
2022-10-23T07:47:55.061Z,991.60
2022-10-23T07:48:55.060Z,991.60
2022-10-23T07:49:55.033Z,991.52
2022-10-23T07:50:55.032Z,991.61
2022-10-23T07:51:55.064Z,991.49
2022-10-23T07:52:55.012Z,991.49
2022-10-23T07:53:55.018Z,991.53
2022-10-23T07:54:55.000Z,991.44
2022-10-23T07:55:54.992Z,991.48
2022-10-23T07:56:55.008Z,991.44
2022-10-23T07:57:54.988Z,991.39
2022-10-23T07:58:54.976Z,991.46
2022-10-23T07:59:54.968Z,991.44
2022-10-23T08:00:54.964Z,991.32
2022-10-23T08:01:55.816Z,991.35
2022-10-23T08:02:56.449Z,991.38
2022-10-23T08:03:54.956Z,991.36
2022-10-23T08:04:54.936Z,991.43
2022-10-23T08:05:54.927Z,991.42
2022-10-23T08:06:54.920Z,991.36
2022-10-23T08:07:54.916Z,991.35
2022-10-23T08:08:54.936Z,991.34
2022-10-23T08:09:54.895Z,991.36
2022-10-23T08:10:54.887Z,991.36
2022-10-23T08:11:54.908Z,991.38
2022-10-23T08:12:54.892Z,991.34
2022-10-23T08:13:54.868Z,991.23
2022-10-23T08:14:54.884Z,991.27
2022-10-23T08:15:54.856Z,991.36
2022-10-23T08:16:54.921Z,991.36
2022-10-23T08:17:54.857Z,991.39
2022-10-23T08:18:54.869Z,991.37
2022-10-23T08:19:54.833Z,991.34
2022-10-23T08:20:54.831Z,991.38
2022-10-23T08:21:54.834Z,991.34
2022-10-23T08:22:54.902Z,991.27
2022-10-23T08:23:54.823Z,991.29
2022-10-23T08:24:54.797Z,991.28
2022-10-23T08:25:54.777Z,991.28
2022-10-23T08:26:54.788Z,991.28
2022-10-23T08:27:54.784Z,991.33
2022-10-23T08:28:54.785Z,991.34
2022-10-23T08:29:54.764Z,991.34
2022-10-23T08:30:54.764Z,991.33
2022-10-23T08:31:54.752Z,991.28
2022-10-23T08:32:54.838Z,991.32
2022-10-23T08:33:54.754Z,991.29
2022-10-23T08:34:54.755Z,991.22
2022-10-23T08:35:54.720Z,991.19
2022-10-23T08:36:54.728Z,991.19
2022-10-23T08:37:54.719Z,991.09
2022-10-23T08:38:54.720Z,991.08
2022-10-23T08:39:54.696Z,991.09
2022-10-23T08:40:54.724Z,991.03
2022-10-23T08:41:54.692Z,991.07
2022-10-23T08:42:54.850Z,991.11
2022-10-23T08:43:54.735Z,991.06
2022-10-23T08:44:54.655Z,991.04
2022-10-23T08:45:54.664Z,991.00
2022-10-23T08:46:54.671Z,991.05
2022-10-23T08:47:54.639Z,991.02
2022-10-23T08:48:54.657Z,991.04
2022-10-23T08:49:54.639Z,991.10
2022-10-23T08:50:54.634Z,991.08
2022-10-23T08:51:54.634Z,991.10
2022-10-23T08:52:54.691Z,991.11
2022-10-23T08:53:54.612Z,991.12
2022-10-23T08:54:54.599Z,991.07
2022-10-23T08:55:54.588Z,991.07
2022-10-23T08:56:54.579Z,991.11
2022-10-23T08:57:54.579Z,991.12
2022-10-23T08:58:54.569Z,991.18
2022-10-23T08:59:54.555Z,991.16
2022-10-23T09:00:54.650Z,991.21
2022-10-23T09:01:54.629Z,991.21
2022-10-23T09:02:54.631Z,991.14
2022-10-23T09:03:54.553Z,991.20
2022-10-23T09:04:54.523Z,991.11
2022-10-23T09:05:54.509Z,991.08
2022-10-23T09:06:54.537Z,991.08
2022-10-23T09:07:54.511Z,991.02
2022-10-23T09:08:54.496Z,991.11
2022-10-23T09:09:54.547Z,991.09
2022-10-23T09:10:54.491Z,991.11
2022-10-23T09:11:54.475Z,991.07
2022-10-23T09:12:54.564Z,991.13
2022-10-23T09:13:54.467Z,991.02
2022-10-23T09:14:54.460Z,991.05
2022-10-23T09:15:54.455Z,991.01
2022-10-23T09:16:54.451Z,991.01
2022-10-23T09:17:54.451Z,990.96
2022-10-23T09:18:54.436Z,991.05
2022-10-23T09:19:54.495Z,991.07
2022-10-23T09:20:54.455Z,991.01
2022-10-23T09:21:54.410Z,991.04
2022-10-23T09:22:54.491Z,990.93
2022-10-23T09:23:54.399Z,990.91
2022-10-23T09:24:54.407Z,990.92
2022-10-23T09:25:54.416Z,990.95
2022-10-23T09:26:54.482Z,990.88
2022-10-23T09:27:56.207Z,990.83
2022-10-23T09:28:55.377Z,990.85
2022-10-23T09:29:54.375Z,990.87
2022-10-23T09:30:54.372Z,990.91
2022-10-23T09:31:54.360Z,990.88
2022-10-23T09:32:54.396Z,990.93
2022-10-23T09:33:54.370Z,990.92
2022-10-23T09:34:54.344Z,991.00
2022-10-23T09:35:54.334Z,991.00
2022-10-23T09:37:54.319Z,991.09
2022-10-23T09:38:54.316Z,991.10
2022-10-23T09:39:54.303Z,991.20
2022-10-23T09:40:54.303Z,991.20
2022-10-23T09:41:56.918Z,991.24
2022-10-23T09:42:54.375Z,991.23
2022-10-23T09:43:54.278Z,990.99
2022-10-23T09:44:54.271Z,991.15
2022-10-23T09:45:54.263Z,991.01
2022-10-23T09:46:54.296Z,991.03
2022-10-23T09:47:54.271Z,991.08
2022-10-23T09:48:54.256Z,990.46
2022-10-23T09:49:54.270Z,990.49
2022-10-23T09:50:54.235Z,990.49
2022-10-23T09:51:54.249Z,990.45
2022-10-23T09:52:54.228Z,990.43
2022-10-23T09:53:54.222Z,990.47
2022-10-23T09:54:54.212Z,990.47
2022-10-23T09:55:54.223Z,990.42
2022-10-23T09:56:54.194Z,990.41
2022-10-23T09:57:54.221Z,990.51
2022-10-23T09:58:54.184Z,990.47
2022-10-23T09:59:54.173Z,990.48
2022-10-23T10:00:55.418Z,990.46
2022-10-23T10:01:54.313Z,990.48
2022-10-23T10:02:54.180Z,990.41
2022-10-23T10:03:54.144Z,990.37
2022-10-23T10:04:54.142Z,990.38
2022-10-23T10:05:54.142Z,990.37
2022-10-23T10:06:54.126Z,990.49
2022-10-23T10:07:54.136Z,990.47
2022-10-23T10:08:54.106Z,990.47
2022-10-23T10:09:54.106Z,990.49
2022-10-23T10:10:54.134Z,990.51
2022-10-23T10:11:54.108Z,990.49
2022-10-23T10:12:54.102Z,990.48
2022-10-23T10:13:54.083Z,990.50
2022-10-23T10:14:54.074Z,990.47
2022-10-23T10:15:54.078Z,990.50
2022-10-23T10:16:54.068Z,990.45
2022-10-23T10:17:54.055Z,990.42
2022-10-23T10:18:54.059Z,990.45
2022-10-23T10:19:54.227Z,990.41
2022-10-23T10:20:54.078Z,990.41
2022-10-23T10:21:54.036Z,990.33
2022-10-23T10:22:54.039Z,990.35
2022-10-23T10:23:54.015Z,990.30
2022-10-23T10:24:54.016Z,990.34
2022-10-23T10:25:54.016Z,990.41
2022-10-23T10:26:54.016Z,990.36
2022-10-23T10:27:54.011Z,990.31
2022-10-23T10:28:53.980Z,990.27
2022-10-23T10:29:53.976Z,990.35
2022-10-23T10:30:53.968Z,990.32
2022-10-23T10:31:53.975Z,990.35
2022-10-23T10:32:53.952Z,990.35
2022-10-23T10:33:53.955Z,990.31
2022-10-23T10:34:53.959Z,990.31
2022-10-23T10:35:53.940Z,990.31
2022-10-23T10:36:53.949Z,990.31
2022-10-23T10:37:54.176Z,990.35
2022-10-23T10:38:53.919Z,990.34
2022-10-23T10:39:53.907Z,990.31
2022-10-23T10:40:53.900Z,990.27
2022-10-23T10:41:53.961Z,990.29
2022-10-23T10:42:53.931Z,990.31
2022-10-23T10:43:53.876Z,990.26
2022-10-23T10:44:53.872Z,990.20
2022-10-23T10:45:53.870Z,990.16
2022-10-23T10:46:53.871Z,990.17
2022-10-23T10:47:53.879Z,990.18
2022-10-23T10:48:53.848Z,990.14
2022-10-23T10:49:53.835Z,990.22
2022-10-23T10:50:53.840Z,990.16
2022-10-23T10:51:53.837Z,990.11
2022-10-23T10:52:53.836Z,990.04
2022-10-23T10:53:53.828Z,990.09
2022-10-23T10:54:53.835Z,990.10
2022-10-23T10:55:53.811Z,990.05
2022-10-23T10:56:53.803Z,990.02
2022-10-23T10:57:55.851Z,990.05
2022-10-23T10:58:54.835Z,990.06
2022-10-23T10:59:53.835Z,990.00
2022-10-23T11:00:53.811Z,989.97
2022-10-23T11:01:53.893Z,989.88
2022-10-23T11:02:53.760Z,989.95
2022-10-23T11:03:53.772Z,989.96
2022-10-23T11:04:53.747Z,989.93
2022-10-23T11:05:53.783Z,989.85
2022-10-23T11:06:53.732Z,989.92
2022-10-23T11:07:53.719Z,989.89
2022-10-23T11:08:58.077Z,989.89
2022-10-23T11:09:55.839Z,989.89
2022-10-23T11:10:53.695Z,989.87
2022-10-23T11:11:54.699Z,989.95
2022-10-23T11:12:53.687Z,989.87
2022-10-23T11:13:53.683Z,989.87
2022-10-23T11:14:53.696Z,989.89
2022-10-23T11:15:53.667Z,989.87
2022-10-23T11:16:53.657Z,989.81
2022-10-23T11:17:53.651Z,989.77
2022-10-23T11:18:53.643Z,989.71
2022-10-23T11:19:53.856Z,989.72
2022-10-23T11:20:53.627Z,989.67
2022-10-23T11:21:53.624Z,989.73
2022-10-23T11:22:53.617Z,989.70
2022-10-23T11:23:53.599Z,989.69
2022-10-23T11:24:55.852Z,989.70
2022-10-23T11:25:53.610Z,989.65
2022-10-23T11:26:53.655Z,989.66
2022-10-23T11:27:53.597Z,989.64
2022-10-23T11:28:53.582Z,989.60
2022-10-23T11:29:53.570Z,989.61
2022-10-23T11:30:53.571Z,989.50
2022-10-23T11:31:53.563Z,989.55
2022-10-23T11:32:53.538Z,989.47
2022-10-23T11:33:53.543Z,989.52
2022-10-23T11:34:53.531Z,989.49
2022-10-23T11:35:53.516Z,989.49
2022-10-23T11:36:53.523Z,989.48
2022-10-23T11:37:53.527Z,989.39
2022-10-23T11:38:53.492Z,989.38
2022-10-23T11:39:53.499Z,989.32
2022-10-23T11:40:53.489Z,989.38
2022-10-23T11:41:53.496Z,989.38
2022-10-23T11:42:53.471Z,989.32
2022-10-23T11:43:53.471Z,989.27
2022-10-23T11:44:53.488Z,989.32
2022-10-23T11:45:53.447Z,989.30
2022-10-23T11:46:53.462Z,989.28
2022-10-23T11:47:53.467Z,989.22
2022-10-23T11:48:53.448Z,989.31
2022-10-23T11:49:53.435Z,989.34
2022-10-23T11:50:53.410Z,989.33
2022-10-23T11:51:53.412Z,989.39
2022-10-23T11:53:12.571Z,989.44
2022-10-23T11:53:55.406Z,989.41
2022-10-23T11:54:53.383Z,989.39
2022-10-23T11:55:53.383Z,989.43
2022-10-23T11:56:53.363Z,989.38
2022-10-23T11:57:53.395Z,989.38
2022-10-23T11:58:54.528Z,989.38
2022-10-23T11:59:53.364Z,989.39
2022-10-23T12:00:53.349Z,989.30
2022-10-23T12:01:53.385Z,989.35
2022-10-23T12:02:58.394Z,989.33
2022-10-23T12:03:54.335Z,989.29
2022-10-23T12:04:53.330Z,989.33
2022-10-23T12:05:53.315Z,989.32
2022-10-23T12:06:53.315Z,989.33
2022-10-23T12:07:53.299Z,989.29
2022-10-23T12:08:53.295Z,989.20
2022-10-23T12:09:53.299Z,989.27
2022-10-23T12:10:53.479Z,989.29
2022-10-23T12:11:53.276Z,989.22
2022-10-23T12:12:53.282Z,989.28
2022-10-23T12:13:53.258Z,989.22
2022-10-23T12:14:53.254Z,989.21
2022-10-23T12:15:55.962Z,989.27
2022-10-23T12:16:55.235Z,989.24
2022-10-23T12:17:53.243Z,989.23
2022-10-23T12:18:53.296Z,989.25
2022-10-23T12:19:53.207Z,989.24
2022-10-23T12:20:53.235Z,989.14
2022-10-23T12:21:53.205Z,989.17
2022-10-23T12:22:53.192Z,989.11
2022-10-23T12:23:53.190Z,989.10
2022-10-23T12:24:53.180Z,989.10
2022-10-23T12:25:53.175Z,989.08
2022-10-23T12:26:53.186Z,989.04
2022-10-23T12:27:53.154Z,989.09
2022-10-23T12:28:53.150Z,989.03
2022-10-23T12:29:53.162Z,989.02
2022-10-23T12:31:53.142Z,989.03
2022-10-23T12:32:53.190Z,989.00
2022-10-23T12:33:53.115Z,989.02
2022-10-23T12:34:53.134Z,988.92